Webb City, MO

4:23 PM CDT on July 26, 2016 (GMT -0500)
Joplin Regional | | Change Station

Elev 981 ft 37.15 °N, 94.50 °W | Updated 30 minutes ago

Scattered Clouds
Scattered Clouds
88 °F
Feels Like 96 °F
N
7
Wind Variable Wind from NE

Today
High -- | Low -- °F
--% Chance of Precip.
Yesterday
High -- | Low -- °F
Precip. -- in
Pressure 29.91 in
Visibility 10.0 miles
Clouds Scattered Clouds 3400 ft
Heat Index 96 °F
Dew Point 74 °F
Humidity 63%
Rainfall 0.00 in
Snow Depth Not available.
6:18 AM 8:30 PM
Waning Gibbous, 51% visible
METAR KJLN 262053Z 05006KT 10SM SCT034 31/23 A2995 RMK AO2 SLP129 T03110233 56023
Pressure 29.91 in
Visibility 10.0 miles
Clouds Scattered Clouds 3400 ft
Heat Index 96 °F
Dew Point 74 °F
Humidity 63%
Rainfall 0.00 in
Snow Depth Not available.
6:18 AM 8:30 PM
Waning Gibbous, 51% visible
METAR KJLN 262053Z 05006KT 10SM SCT034 31/23 A2995 RMK AO2 SLP129 T03110233 56023

10-Day Weather Forecast

Almanac

Astronomy

Jul. 26, 2016 Rise Set
Actual Time
Civil Twilight
Nautical Twilight
Astronomical Twilight
Moon
Length of Visible Light
Length of Day
Tomorrow will be .
, % of the Moon is Illuminated

Today's Extremes

State Highs State Lows

Community

WunderPhotos

Upload Photos

1,927,702 photos uploaded!

WunderBlog® & News

Nearby

Air Quality

  Air Quality AQ Index Pollutant
Not available.

Snow Depth

Station Depth Elevation

Earthquake Activity

City Distance Mag. Time & Date
Minimum magnitude displayed is 2.5.

Coastal Water Temperatures

Place Temperature

Stations

Nearby Weather Stations

Station Location Temp. Windchill Dew Point Humidity Wind Precip. Elev Updated Type
                   

Watches & Warnings

There are currently no watches in effect.